sensor_id;sensor_type;location;lat;lon;timestamp;temperature;humidity
6538;DHT22;3302;52.508;13.454;2023-05-10T00:00:21;12.90;55.00
6538;DHT22;3302;52.508;13.454;2023-05-10T00:02:48;13.00;55.00
6538;DHT22;3302;52.508;13.454;2023-05-10T00:05:14;12.90;55.10
6538;DHT22;3302;52.508;13.454;2023-05-10T00:07:39;12.90;55.30
6538;DHT22;3302;52.508;13.454;2023-05-10T00:10:06;12.80;55.70
6538;DHT22;3302;52.508;13.454;2023-05-10T00:12:32;12.80;56.00
6538;DHT22;3302;52.508;13.454;2023-05-10T00:14:57;12.90;55.70
6538;DHT22;3302;52.508;13.454;2023-05-10T00:17:23;12.90;55.80
6538;DHT22;3302;52.508;13.454;2023-05-10T00:19:49;12.90;55.90
6538;DHT22;3302;52.508;13.454;2023-05-10T00:22:14;12.80;55.90
6538;DHT22;3302;52.508;13.454;2023-05-10T00:24:41;12.80;56.40
6538;DHT22;3302;52.508;13.454;2023-05-10T00:27:06;12.70;56.50
6538;DHT22;3302;52.508;13.454;2023-05-10T00:29:32;12.80;56.50
6538;DHT22;3302;52.508;13.454;2023-05-10T00:31:59;12.70;56.20
6538;DHT22;3302;52.508;13.454;2023-05-10T00:34:24;12.60;56.20
6538;DHT22;3302;52.508;13.454;2023-05-10T00:36:50;12.50;56.80
6538;DHT22;3302;52.508;13.454;2023-05-10T00:39:16;12.60;56.70
6538;DHT22;3302;52.508;13.454;2023-05-10T00:41:42;12.50;56.90
6538;DHT22;3302;52.508;13.454;2023-05-10T00:44:08;12.60;56.80
6538;DHT22;3302;52.508;13.454;2023-05-10T00:46:34;12.50;57.20
6538;DHT22;3302;52.508;13.454;2023-05-10T00:49:00;12.50;57.50
6538;DHT22;3302;52.508;13.454;2023-05-10T00:51:26;12.40;58.00
6538;DHT22;3302;52.508;13.454;2023-05-10T00:53:52;12.40;57.50
6538;DHT22;3302;52.508;13.454;2023-05-10T00:56:17;12.30;57.70
6538;DHT22;3302;52.508;13.454;2023-05-10T00:58:43;12.30;58.40
6538;DHT22;3302;52.508;13.454;2023-05-10T01:01:10;12.30;58.40
6538;DHT22;3302;52.508;13.454;2023-05-10T01:03:36;12.20;58.40
6538;DHT22;3302;52.508;13.454;2023-05-10T01:06:02;12.10;58.60
6538;DHT22;3302;52.508;13.454;2023-05-10T01:08:28;12.10;59.00
6538;DHT22;3302;52.508;13.454;2023-05-10T01:10:55;12.10;59.10
6538;DHT22;3302;52.508;13.454;2023-05-10T01:13:36;12.00;59.40
6538;DHT22;3302;52.508;13.454;2023-05-10T01:16:03;12.00;59.30
6538;DHT22;3302;52.508;13.454;2023-05-10T01:18:33;11.90;59.70
6538;DHT22;3302;52.508;13.454;2023-05-10T01:21:27;11.90;60.00
6538;DHT22;3302;52.508;13.454;2023-05-10T01:24:12;12.00;60.10
6538;DHT22;3302;52.508;13.454;2023-05-10T01:27:11;11.90;60.40
6538;DHT22;3302;52.508;13.454;2023-05-10T01:35:35;11.70;61.20
6538;DHT22;3302;52.508;13.454;2023-05-10T01:40:58;11.70;61.80
6538;DHT22;3302;52.508;13.454;2023-05-10T01:43:35;11.70;62.00
6538;DHT22;3302;52.508;13.454;2023-05-10T01:46:07;11.60;62.30
6538;DHT22;3302;52.508;13.454;2023-05-10T01:48:57;11.60;62.40
6538;DHT22;3302;52.508;13.454;2023-05-10T01:51:27;11.60;63.70
6538;DHT22;3302;52.508;13.454;2023-05-10T01:53:59;11.60;62.70
6538;DHT22;3302;52.508;13.454;2023-05-10T01:56:26;11.50;63.30
6538;DHT22;3302;52.508;13.454;2023-05-10T01:58:55;11.50;63.00
6538;DHT22;3302;52.508;13.454;2023-05-10T02:01:21;11.50;63.70
6538;DHT22;3302;52.508;13.454;2023-05-10T02:03:49;11.40;63.70
6538;DHT22;3302;52.508;13.454;2023-05-10T02:06:16;11.40;63.60
6538;DHT22;3302;52.508;13.454;2023-05-10T02:08:44;11.50;63.50
6538;DHT22;3302;52.508;13.454;2023-05-10T02:11:13;11.20;64.10
6538;DHT22;3302;52.508;13.454;2023-05-10T02:13:41;11.20;64.50
6538;DHT22;3302;52.508;13.454;2023-05-10T02:16:07;11.20;64.70
6538;DHT22;3302;52.508;13.454;2023-05-10T02:18:34;11.30;64.50
6538;DHT22;3302;52.508;13.454;2023-05-10T02:21:02;11.20;64.80
6538;DHT22;3302;52.508;13.454;2023-05-10T02:23:29;11.20;64.90
6538;DHT22;3302;52.508;13.454;2023-05-10T02:25:56;11.30;65.10
6538;DHT22;3302;52.508;13.454;2023-05-10T02:28:23;11.30;65.10
6538;DHT22;3302;52.508;13.454;2023-05-10T02:30:51;11.20;64.60
6538;DHT22;3302;52.508;13.454;2023-05-10T02:33:18;11.20;65.50
6538;DHT22;3302;52.508;13.454;2023-05-10T02:35:46;11.20;65.40
6538;DHT22;3302;52.508;13.454;2023-05-10T02:38:14;11.20;65.30
6538;DHT22;3302;52.508;13.454;2023-05-10T02:40:41;11.20;65.10
6538;DHT22;3302;52.508;13.454;2023-05-10T02:43:12;11.20;65.80
6538;DHT22;3302;52.508;13.454;2023-05-10T02:45:40;11.10;65.30
6538;DHT22;3302;52.508;13.454;2023-05-10T02:48:07;11.10;65.50
6538;DHT22;3302;52.508;13.454;2023-05-10T02:50:33;11.10;65.90
6538;DHT22;3302;52.508;13.454;2023-05-10T02:53:03;11.00;66.10
6538;DHT22;3302;52.508;13.454;2023-05-10T02:55:36;11.10;66.10
6538;DHT22;3302;52.508;13.454;2023-05-10T02:58:03;11.00;66.10
6538;DHT22;3302;52.508;13.454;2023-05-10T03:00:29;11.00;66.10
6538;DHT22;3302;52.508;13.454;2023-05-10T03:02:55;11.00;66.60
6538;DHT22;3302;52.508;13.454;2023-05-10T03:05:21;10.80;67.00
6538;DHT22;3302;52.508;13.454;2023-05-10T03:07:47;10.80;67.50
6538;DHT22;3302;52.508;13.454;2023-05-10T03:10:13;10.90;67.30
6538;DHT22;3302;52.508;13.454;2023-05-10T03:15:52;10.90;67.30
6538;DHT22;3302;52.508;13.454;2023-05-10T03:18:25;10.80;66.90
6538;DHT22;3302;52.508;13.454;2023-05-10T03:20:59;10.80;67.50
6538;DHT22;3302;52.508;13.454;2023-05-10T03:23:46;10.80;67.80
6538;DHT22;3302;52.508;13.454;2023-05-10T03:26:18;10.80;67.30
6538;DHT22;3302;52.508;13.454;2023-05-10T03:28:47;10.80;67.70
6538;DHT22;3302;52.508;13.454;2023-05-10T03:31:14;10.70;67.60
6538;DHT22;3302;52.508;13.454;2023-05-10T03:33:49;10.70;67.40
6538;DHT22;3302;52.508;13.454;2023-05-10T03:36:15;10.70;67.60
6538;DHT22;3302;52.508;13.454;2023-05-10T03:38:41;10.80;67.60
6538;DHT22;3302;52.508;13.454;2023-05-10T03:41:07;10.80;67.50
6538;DHT22;3302;52.508;13.454;2023-05-10T03:43:33;10.70;67.60
6538;DHT22;3302;52.508;13.454;2023-05-10T03:46:01;10.70;67.70
6538;DHT22;3302;52.508;13.454;2023-05-10T03:48:26;10.70;67.70
6538;DHT22;3302;52.508;13.454;2023-05-10T03:50:52;10.60;67.80
6538;DHT22;3302;52.508;13.454;2023-05-10T03:53:18;10.60;68.10
6538;DHT22;3302;52.508;13.454;2023-05-10T03:55:43;10.70;68.10
6538;DHT22;3302;52.508;13.454;2023-05-10T03:58:13;10.60;68.00
6538;DHT22;3302;52.508;13.454;2023-05-10T04:00:38;10.50;68.10
6538;DHT22;3302;52.508;13.454;2023-05-10T04:03:11;10.60;68.10
6538;DHT22;3302;52.508;13.454;2023-05-10T04:05:37;10.60;68.00
6538;DHT22;3302;52.508;13.454;2023-05-10T04:08:03;10.60;67.80
6538;DHT22;3302;52.508;13.454;2023-05-10T04:10:29;10.70;67.80
6538;DHT22;3302;52.508;13.454;2023-05-10T04:12:55;10.70;67.90
6538;DHT22;3302;52.508;13.454;2023-05-10T04:15:21;10.70;67.60
6538;DHT22;3302;52.508;13.454;2023-05-10T04:17:47;10.70;67.60
6538;DHT22;3302;52.508;13.454;2023-05-10T04:20:13;10.80;67.50
6538;DHT22;3302;52.508;13.454;2023-05-10T04:22:39;10.70;67.20
6538;DHT22;3302;52.508;13.454;2023-05-10T04:25:05;10.70;66.80
6538;DHT22;3302;52.508;13.454;2023-05-10T04:27:31;10.80;66.90
6538;DHT22;3302;52.508;13.454;2023-05-10T04:29:57;10.80;66.50
6538;DHT22;3302;52.508;13.454;2023-05-10T04:32:23;10.80;66.10
6538;DHT22;3302;52.508;13.454;2023-05-10T04:34:49;10.70;66.40
6538;DHT22;3302;52.508;13.454;2023-05-10T04:37:16;10.80;66.70
6538;DHT22;3302;52.508;13.454;2023-05-10T04:39:42;10.80;67.30
6538;DHT22;3302;52.508;13.454;2023-05-10T04:42:08;10.80;66.20
6538;DHT22;3302;52.508;13.454;2023-05-10T04:44:34;10.90;66.70
6538;DHT22;3302;52.508;13.454;2023-05-10T04:47:00;11.10;66.00
6538;DHT22;3302;52.508;13.454;2023-05-10T04:49:28;11.10;65.40
6538;DHT22;3302;52.508;13.454;2023-05-10T04:51:53;11.20;65.40
6538;DHT22;3302;52.508;13.454;2023-05-10T04:54:19;11.20;65.40
6538;DHT22;3302;52.508;13.454;2023-05-10T04:56:45;11.30;65.90
6538;DHT22;3302;52.508;13.454;2023-05-10T04:59:11;11.20;65.20
6538;DHT22;3302;52.508;13.454;2023-05-10T05:01:37;11.40;64.90
6538;DHT22;3302;52.508;13.454;2023-05-10T05:04:02;11.40;64.50
6538;DHT22;3302;52.508;13.454;2023-05-10T05:06:28;11.40;64.70
6538;DHT22;3302;52.508;13.454;2023-05-10T05:08:54;11.50;64.30
6538;DHT22;3302;52.508;13.454;2023-05-10T05:11:20;11.50;64.50
6538;DHT22;3302;52.508;13.454;2023-05-10T05:13:46;11.70;64.00
6538;DHT22;3302;52.508;13.454;2023-05-10T05:16:12;11.60;64.00
6538;DHT22;3302;52.508;13.454;2023-05-10T05:18:38;11.70;64.00
6538;DHT22;3302;52.508;13.454;2023-05-10T05:21:16;11.70;64.20
6538;DHT22;3302;52.508;13.454;2023-05-10T05:23:42;11.70;63.60
6538;DHT22;3302;52.508;13.454;2023-05-10T05:26:09;11.80;63.30
6538;DHT22;3302;52.508;13.454;2023-05-10T05:28:36;11.90;63.00
6538;DHT22;3302;52.508;13.454;2023-05-10T05:31:06;12.00;63.20
6538;DHT22;3302;52.508;13.454;2023-05-10T05:33:35;12.10;63.00
6538;DHT22;3302;52.508;13.454;2023-05-10T05:36:03;12.10;62.40
6538;DHT22;3302;52.508;13.454;2023-05-10T05:38:29;12.20;62.70
6538;DHT22;3302;52.508;13.454;2023-05-10T05:40:54;12.40;63.10
6538;DHT22;3302;52.508;13.454;2023-05-10T05:43:20;12.50;62.20
6538;DHT22;3302;52.508;13.454;2023-05-10T05:45:46;12.60;62.40
6538;DHT22;3302;52.508;13.454;2023-05-10T05:48:12;12.70;61.50
6538;DHT22;3302;52.508;13.454;2023-05-10T05:50:37;12.80;60.80
6538;DHT22;3302;52.508;13.454;2023-05-10T05:53:03;12.90;60.80
6538;DHT22;3302;52.508;13.454;2023-05-10T05:55:29;12.80;61.50
6538;DHT22;3302;52.508;13.454;2023-05-10T05:57:57;13.00;60.60
6538;DHT22;3302;52.508;13.454;2023-05-10T06:00:23;13.00;60.40
6538;DHT22;3302;52.508;13.454;2023-05-10T06:02:49;13.10;60.00
6538;DHT22;3302;52.508;13.454;2023-05-10T06:05:15;13.30;59.90
6538;DHT22;3302;52.508;13.454;2023-05-10T06:07:41;13.40;59.60
6538;DHT22;3302;52.508;13.454;2023-05-10T06:10:10;13.40;59.30
6538;DHT22;3302;52.508;13.454;2023-05-10T06:12:35;13.50;59.10
6538;DHT22;3302;52.508;13.454;2023-05-10T06:15:02;13.60;58.60
6538;DHT22;3302;52.508;13.454;2023-05-10T06:17:27;13.70;58.50
6538;DHT22;3302;52.508;13.454;2023-05-10T06:19:54;13.70;58.10
6538;DHT22;3302;52.508;13.454;2023-05-10T06:22:20;13.80;58.40
6538;DHT22;3302;52.508;13.454;2023-05-10T06:24:48;13.80;57.80
6538;DHT22;3302;52.508;13.454;2023-05-10T06:27:14;13.90;58.40
6538;DHT22;3302;52.508;13.454;2023-05-10T06:29:40;13.90;57.70
6538;DHT22;3302;52.508;13.454;2023-05-10T06:32:06;14.10;57.50
6538;DHT22;3302;52.508;13.454;2023-05-10T06:34:32;14.10;57.40
6538;DHT22;3302;52.508;13.454;2023-05-10T06:36:57;14.10;56.90
6538;DHT22;3302;52.508;13.454;2023-05-10T06:39:23;14.00;57.30
6538;DHT22;3302;52.508;13.454;2023-05-10T06:41:49;14.10;57.00
6538;DHT22;3302;52.508;13.454;2023-05-10T06:44:15;14.10;56.70
6538;DHT22;3302;52.508;13.454;2023-05-10T06:46:41;14.20;57.10
6538;DHT22;3302;52.508;13.454;2023-05-10T06:49:07;14.40;56.90
6538;DHT22;3302;52.508;13.454;2023-05-10T06:51:33;14.50;57.20
6538;DHT22;3302;52.508;13.454;2023-05-10T06:53:59;14.60;56.60
6538;DHT22;3302;52.508;13.454;2023-05-10T06:56:25;14.80;56.80
6538;DHT22;3302;52.508;13.454;2023-05-10T06:58:51;14.70;56.00
6538;DHT22;3302;52.508;13.454;2023-05-10T07:01:17;15.10;57.50
6538;DHT22;3302;52.508;13.454;2023-05-10T07:03:42;15.10;56.90
6538;DHT22;3302;52.508;13.454;2023-05-10T07:06:08;15.30;56.60
6538;DHT22;3302;52.508;13.454;2023-05-10T07:08:34;15.40;55.60
6538;DHT22;3302;52.508;13.454;2023-05-10T07:11:04;15.40;56.10
6538;DHT22;3302;52.508;13.454;2023-05-10T07:13:31;15.60;55.30
6538;DHT22;3302;52.508;13.454;2023-05-10T07:15:58;15.60;55.20
6538;DHT22;3302;52.508;13.454;2023-05-10T07:18:24;15.50;55.00
6538;DHT22;3302;52.508;13.454;2023-05-10T07:20:50;15.50;54.00
6538;DHT22;3302;52.508;13.454;2023-05-10T07:23:16;15.80;54.10
6538;DHT22;3302;52.508;13.454;2023-05-10T07:25:47;15.40;53.70
6538;DHT22;3302;52.508;13.454;2023-05-10T07:28:14;15.50;54.20
6538;DHT22;3302;52.508;13.454;2023-05-10T07:30:42;15.70;54.10
6538;DHT22;3302;52.508;13.454;2023-05-10T07:33:09;16.10;54.90
6538;DHT22;3302;52.508;13.454;2023-05-10T07:35:35;15.80;53.20
6538;DHT22;3302;52.508;13.454;2023-05-10T07:38:01;16.10;53.60
6538;DHT22;3302;52.508;13.454;2023-05-10T07:40:28;16.30;53.20
6538;DHT22;3302;52.508;13.454;2023-05-10T07:42:54;16.30;53.10
6538;DHT22;3302;52.508;13.454;2023-05-10T07:45:20;16.10;52.90
6538;DHT22;3302;52.508;13.454;2023-05-10T07:47:45;16.10;52.60
6538;DHT22;3302;52.508;13.454;2023-05-10T07:50:11;16.30;53.00
6538;DHT22;3302;52.508;13.454;2023-05-10T07:52:37;16.40;52.80
6538;DHT22;3302;52.508;13.454;2023-05-10T07:55:03;16.50;52.60
6538;DHT22;3302;52.508;13.454;2023-05-10T07:57:29;16.30;52.10
6538;DHT22;3302;52.508;13.454;2023-05-10T07:59:54;16.60;52.60
6538;DHT22;3302;52.508;13.454;2023-05-10T08:02:20;16.70;51.90
6538;DHT22;3302;52.508;13.454;2023-05-10T08:04:46;16.80;52.30
6538;DHT22;3302;52.508;13.454;2023-05-10T08:07:12;16.90;52.50
6538;DHT22;3302;52.508;13.454;2023-05-10T08:09:37;17.00;51.50
6538;DHT22;3302;52.508;13.454;2023-05-10T08:12:03;16.90;51.70
6538;DHT22;3302;52.508;13.454;2023-05-10T08:14:29;17.20;52.30
6538;DHT22;3302;52.508;13.454;2023-05-10T08:16:55;17.30;51.50
6538;DHT22;3302;52.508;13.454;2023-05-10T08:19:21;17.40;51.10
6538;DHT22;3302;52.508;13.454;2023-05-10T08:21:48;17.20;50.20
6538;DHT22;3302;52.508;13.454;2023-05-10T08:24:14;17.20;50.60
6538;DHT22;3302;52.508;13.454;2023-05-10T08:26:40;17.50;50.60
6538;DHT22;3302;52.508;13.454;2023-05-10T08:29:06;17.60;50.30
6538;DHT22;3302;52.508;13.454;2023-05-10T08:31:32;17.80;50.10
6538;DHT22;3302;52.508;13.454;2023-05-10T08:33:57;17.80;51.60
6538;DHT22;3302;52.508;13.454;2023-05-10T08:36:23;18.00;50.30
6538;DHT22;3302;52.508;13.454;2023-05-10T08:38:53;18.20;48.80
6538;DHT22;3302;52.508;13.454;2023-05-10T08:41:20;18.10;48.60
6538;DHT22;3302;52.508;13.454;2023-05-10T08:43:47;17.90;48.00
6538;DHT22;3302;52.508;13.454;2023-05-10T08:46:17;17.60;48.50
6538;DHT22;3302;52.508;13.454;2023-05-10T08:48:45;17.80;48.90
6538;DHT22;3302;52.508;13.454;2023-05-10T08:51:18;17.80;49.20
6538;DHT22;3302;52.508;13.454;2023-05-10T08:53:45;17.80;48.80
6538;DHT22;3302;52.508;13.454;2023-05-10T08:56:11;17.80;49.10
6538;DHT22;3302;52.508;13.454;2023-05-10T08:58:38;18.20;50.00
6538;DHT22;3302;52.508;13.454;2023-05-10T09:01:05;18.70;48.90
6538;DHT22;3302;52.508;13.454;2023-05-10T09:03:31;18.50;48.30
6538;DHT22;3302;52.508;13.454;2023-05-10T09:05:57;18.60;47.80
6538;DHT22;3302;52.508;13.454;2023-05-10T09:08:24;18.60;47.30
6538;DHT22;3302;52.508;13.454;2023-05-10T09:10:54;18.50;47.10
6538;DHT22;3302;52.508;13.454;2023-05-10T09:13:22;18.80;46.50
6538;DHT22;3302;52.508;13.454;2023-05-10T09:15:49;18.60;46.10
6538;DHT22;3302;52.508;13.454;2023-05-10T09:18:15;18.50;47.10
6538;DHT22;3302;52.508;13.454;2023-05-10T09:20:41;18.40;47.10
6538;DHT22;3302;52.508;13.454;2023-05-10T09:23:07;18.50;47.30
6538;DHT22;3302;52.508;13.454;2023-05-10T09:25:33;18.90;46.10
6538;DHT22;3302;52.508;13.454;2023-05-10T09:27:59;18.80;46.80
6538;DHT22;3302;52.508;13.454;2023-05-10T09:30:30;19.10;46.30
6538;DHT22;3302;52.508;13.454;2023-05-10T09:32:57;19.20;45.70
6538;DHT22;3302;52.508;13.454;2023-05-10T09:35:25;19.20;47.30
6538;DHT22;3302;52.508;13.454;2023-05-10T09:37:53;19.40;47.20
6538;DHT22;3302;52.508;13.454;2023-05-10T09:40:21;18.80;45.40
6538;DHT22;3302;52.508;13.454;2023-05-10T09:43:05;18.90;45.20
6538;DHT22;3302;52.508;13.454;2023-05-10T09:45:33;19.20;45.30
6538;DHT22;3302;52.508;13.454;2023-05-10T09:48:01;19.00;45.30
6538;DHT22;3302;52.508;13.454;2023-05-10T09:50:28;18.90;45.50
6538;DHT22;3302;52.508;13.454;2023-05-10T09:52:58;18.90;45.80
6538;DHT22;3302;52.508;13.454;2023-05-10T09:57:59;19.40;45.80
6538;DHT22;3302;52.508;13.454;2023-05-10T10:00:26;19.50;45.70
6538;DHT22;3302;52.508;13.454;2023-05-10T10:02:57;19.40;43.90
6538;DHT22;3302;52.508;13.454;2023-05-10T10:05:33;19.40;44.00
6538;DHT22;3302;52.508;13.454;2023-05-10T10:08:01;19.60;44.10
6538;DHT22;3302;52.508;13.454;2023-05-10T10:10:28;19.50;43.70
6538;DHT22;3302;52.508;13.454;2023-05-10T10:12:54;19.60;44.10
6538;DHT22;3302;52.508;13.454;2023-05-10T10:15:21;19.80;43.00
6538;DHT22;3302;52.508;13.454;2023-05-10T10:17:48;19.80;43.20
6538;DHT22;3302;52.508;13.454;2023-05-10T10:20:15;19.50;43.40
6538;DHT22;3302;52.508;13.454;2023-05-10T10:22:41;19.40;44.10
6538;DHT22;3302;52.508;13.454;2023-05-10T10:25:10;19.80;44.50
6538;DHT22;3302;52.508;13.454;2023-05-10T10:30:34;19.90;43.90
6538;DHT22;3302;52.508;13.454;2023-05-10T10:35:52;19.90;43.10
6538;DHT22;3302;52.508;13.454;2023-05-10T10:38:18;20.10;43.80
6538;DHT22;3302;52.508;13.454;2023-05-10T10:40:44;20.20;42.80
6538;DHT22;3302;52.508;13.454;2023-05-10T10:43:23;20.10;42.90
6538;DHT22;3302;52.508;13.454;2023-05-10T10:48:41;20.00;42.60
6538;DHT22;3302;52.508;13.454;2023-05-10T10:51:07;20.20;42.60
6538;DHT22;3302;52.508;13.454;2023-05-10T10:53:33;20.40;42.40
6538;DHT22;3302;52.508;13.454;2023-05-10T10:56:08;20.20;42.10
6538;DHT22;3302;52.508;13.454;2023-05-10T10:58:38;20.10;42.50
6538;DHT22;3302;52.508;13.454;2023-05-10T11:01:16;19.80;42.70
6538;DHT22;3302;52.508;13.454;2023-05-10T11:06:34;20.60;42.60
6538;DHT22;3302;52.508;13.454;2023-05-10T11:09:08;20.50;41.90
6538;DHT22;3302;52.508;13.454;2023-05-10T11:11:35;20.50;42.10
6538;DHT22;3302;52.508;13.454;2023-05-10T11:14:06;20.60;41.30
6538;DHT22;3302;52.508;13.454;2023-05-10T11:16:44;20.50;42.30
6538;DHT22;3302;52.508;13.454;2023-05-10T11:19:12;20.50;41.50
6538;DHT22;3302;52.508;13.454;2023-05-10T11:24:29;20.50;41.80
6538;DHT22;3302;52.508;13.454;2023-05-10T11:26:56;20.40;41.90
6538;DHT22;3302;52.508;13.454;2023-05-10T11:29:22;20.30;41.80
6538;DHT22;3302;52.508;13.454;2023-05-10T11:31:51;20.60;41.50
6538;DHT22;3302;52.508;13.454;2023-05-10T11:34:28;20.70;39.70
6538;DHT22;3302;52.508;13.454;2023-05-10T11:36:56;20.70;40.60
6538;DHT22;3302;52.508;13.454;2023-05-10T11:39:30;20.80;40.90
6538;DHT22;3302;52.508;13.454;2023-05-10T11:41:56;20.80;41.50
6538;DHT22;3302;52.508;13.454;2023-05-10T11:44:23;21.00;40.90
6538;DHT22;3302;52.508;13.454;2023-05-10T11:46:49;21.10;41.20
6538;DHT22;3302;52.508;13.454;2023-05-10T11:49:15;21.20;40.60
6538;DHT22;3302;52.508;13.454;2023-05-10T11:51:41;21.00;39.50
6538;DHT22;3302;52.508;13.454;2023-05-10T11:54:12;20.90;39.60
6538;DHT22;3302;52.508;13.454;2023-05-10T11:56:39;21.00;39.20
6538;DHT22;3302;52.508;13.454;2023-05-10T11:59:05;20.90;39.00
6538;DHT22;3302;52.508;13.454;2023-05-10T12:01:31;20.80;39.00
6538;DHT22;3302;52.508;13.454;2023-05-10T12:03:58;20.90;39.40
6538;DHT22;3302;52.508;13.454;2023-05-10T12:06:27;21.20;40.00
6538;DHT22;3302;52.508;13.454;2023-05-10T12:08:54;21.30;39.10
6538;DHT22;3302;52.508;13.454;2023-05-10T12:11:20;21.40;40.00
6538;DHT22;3302;52.508;13.454;2023-05-10T12:13:50;21.60;38.80
6538;DHT22;3302;52.508;13.454;2023-05-10T12:16:24;21.50;37.90
6538;DHT22;3302;52.508;13.454;2023-05-10T12:18:52;21.50;37.30
6538;DHT22;3302;52.508;13.454;2023-05-10T12:21:21;21.50;37.40
6538;DHT22;3302;52.508;13.454;2023-05-10T12:23:52;21.60;37.40
6538;DHT22;3302;52.508;13.454;2023-05-10T12:26:21;21.50;37.40
6538;DHT22;3302;52.508;13.454;2023-05-10T12:28:47;21.60;36.40
6538;DHT22;3302;52.508;13.454;2023-05-10T12:31:13;21.50;35.50
6538;DHT22;3302;52.508;13.454;2023-05-10T12:33:43;21.30;35.90
6538;DHT22;3302;52.508;13.454;2023-05-10T12:36:10;21.40;36.20
6538;DHT22;3302;52.508;13.454;2023-05-10T12:38:39;21.60;36.70
6538;DHT22;3302;52.508;13.454;2023-05-10T12:41:13;21.70;36.60
6538;DHT22;3302;52.508;13.454;2023-05-10T12:43:39;21.70;37.00
6538;DHT22;3302;52.508;13.454;2023-05-10T12:46:14;21.70;36.70
6538;DHT22;3302;52.508;13.454;2023-05-10T12:48:42;21.60;36.90
6538;DHT22;3302;52.508;13.454;2023-05-10T12:51:09;21.60;36.70
6538;DHT22;3302;52.508;13.454;2023-05-10T12:53:38;21.60;36.50
6538;DHT22;3302;52.508;13.454;2023-05-10T12:56:04;21.50;34.20
6538;DHT22;3302;52.508;13.454;2023-05-10T12:58:30;21.50;35.00
6538;DHT22;3302;52.508;13.454;2023-05-10T13:00:58;21.70;34.90
6538;DHT22;3302;52.508;13.454;2023-05-10T13:03:24;22.00;35.00
6538;DHT22;3302;52.508;13.454;2023-05-10T13:05:50;21.70;36.10
6538;DHT22;3302;52.508;13.454;2023-05-10T13:08:16;21.70;36.20
6538;DHT22;3302;52.508;13.454;2023-05-10T13:10:42;21.70;35.80
6538;DHT22;3302;52.508;13.454;2023-05-10T13:13:07;21.60;36.60
6538;DHT22;3302;52.508;13.454;2023-05-10T13:15:34;22.00;35.10
6538;DHT22;3302;52.508;13.454;2023-05-10T13:18:00;22.10;32.80
6538;DHT22;3302;52.508;13.454;2023-05-10T13:20:26;22.00;32.60
6538;DHT22;3302;52.508;13.454;2023-05-10T13:22:52;22.00;33.40
6538;DHT22;3302;52.508;13.454;2023-05-10T13:25:18;22.10;33.20
6538;DHT22;3302;52.508;13.454;2023-05-10T13:27:44;22.10;33.50
6538;DHT22;3302;52.508;13.454;2023-05-10T13:30:10;22.20;32.50
6538;DHT22;3302;52.508;13.454;2023-05-10T13:32:37;22.20;34.10
6538;DHT22;3302;52.508;13.454;2023-05-10T13:35:03;22.10;32.90
6538;DHT22;3302;52.508;13.454;2023-05-10T13:37:29;22.40;33.80
6538;DHT22;3302;52.508;13.454;2023-05-10T13:39:55;22.40;34.60
6538;DHT22;3302;52.508;13.454;2023-05-10T13:42:24;22.50;33.20
6538;DHT22;3302;52.508;13.454;2023-05-10T13:44:50;22.60;33.10
6538;DHT22;3302;52.508;13.454;2023-05-10T13:47:16;22.60;33.30
6538;DHT22;3302;52.508;13.454;2023-05-10T13:49:42;22.80;32.30
6538;DHT22;3302;52.508;13.454;2023-05-10T13:52:08;22.80;32.20
6538;DHT22;3302;52.508;13.454;2023-05-10T13:54:38;22.80;31.60
6538;DHT22;3302;52.508;13.454;2023-05-10T13:57:05;23.00;32.10
6538;DHT22;3302;52.508;13.454;2023-05-10T13:59:32;23.00;31.40
6538;DHT22;3302;52.508;13.454;2023-05-10T14:01:58;22.90;31.40
6538;DHT22;3302;52.508;13.454;2023-05-10T14:04:24;23.00;31.80
6538;DHT22;3302;52.508;13.454;2023-05-10T14:06:50;23.10;30.90
6538;DHT22;3302;52.508;13.454;2023-05-10T14:09:18;23.10;30.00
6538;DHT22;3302;52.508;13.454;2023-05-10T14:11:45;23.20;30.90
6538;DHT22;3302;52.508;13.454;2023-05-10T14:14:11;23.40;30.00
6538;DHT22;3302;52.508;13.454;2023-05-10T14:16:38;22.90;29.90
6538;DHT22;3302;52.508;13.454;2023-05-10T14:19:04;23.10;30.40
6538;DHT22;3302;52.508;13.454;2023-05-10T14:21:29;23.30;29.90
6538;DHT22;3302;52.508;13.454;2023-05-10T14:23:56;22.80;30.00
6538;DHT22;3302;52.508;13.454;2023-05-10T14:26:22;23.10;30.10
6538;DHT22;3302;52.508;13.454;2023-05-10T14:28:48;23.20;30.00
6538;DHT22;3302;52.508;13.454;2023-05-10T14:31:13;23.50;29.30
6538;DHT22;3302;52.508;13.454;2023-05-10T14:33:40;23.60;28.40
6538;DHT22;3302;52.508;13.454;2023-05-10T14:36:07;23.40;27.80
6538;DHT22;3302;52.508;13.454;2023-05-10T14:38:32;23.90;27.60
6538;DHT22;3302;52.508;13.454;2023-05-10T14:40:58;24.20;27.20
6538;DHT22;3302;52.508;13.454;2023-05-10T14:43:24;24.00;26.10
6538;DHT22;3302;52.508;13.454;2023-05-10T14:45:50;23.60;26.20
6538;DHT22;3302;52.508;13.454;2023-05-10T14:48:16;23.70;27.10
6538;DHT22;3302;52.508;13.454;2023-05-10T14:50:43;24.20;27.00
6538;DHT22;3302;52.508;13.454;2023-05-10T14:53:09;24.20;26.90
6538;DHT22;3302;52.508;13.454;2023-05-10T14:55:35;24.50;27.30
6538;DHT22;3302;52.508;13.454;2023-05-10T14:58:04;24.60;27.00
6538;DHT22;3302;52.508;13.454;2023-05-10T15:00:30;25.00;27.20
6538;DHT22;3302;52.508;13.454;2023-05-10T15:02:56;24.60;25.90
6538;DHT22;3302;52.508;13.454;2023-05-10T15:05:23;24.30;26.80
6538;DHT22;3302;52.508;13.454;2023-05-10T15:07:50;24.10;27.60
6538;DHT22;3302;52.508;13.454;2023-05-10T15:10:16;24.10;26.90
6538;DHT22;3302;52.508;13.454;2023-05-10T15:12:41;24.20;27.20
6538;DHT22;3302;52.508;13.454;2023-05-10T15:15:07;24.10;27.10
6538;DHT22;3302;52.508;13.454;2023-05-10T15:17:33;23.90;27.70
6538;DHT22;3302;52.508;13.454;2023-05-10T15:19:59;24.10;28.10
6538;DHT22;3302;52.508;13.454;2023-05-10T15:22:25;24.60;28.30
6538;DHT22;3302;52.508;13.454;2023-05-10T15:24:54;24.90;27.40
6538;DHT22;3302;52.508;13.454;2023-05-10T15:27:21;24.30;26.40
6538;DHT22;3302;52.508;13.454;2023-05-10T15:29:46;24.30;26.80
6538;DHT22;3302;52.508;13.454;2023-05-10T15:32:12;24.80;26.70
6538;DHT22;3302;52.508;13.454;2023-05-10T15:34:38;23.90;26.60
6538;DHT22;3302;52.508;13.454;2023-05-10T15:37:05;23.50;27.60
6538;DHT22;3302;52.508;13.454;2023-05-10T15:39:31;23.30;28.50
6538;DHT22;3302;52.508;13.454;2023-05-10T15:41:57;23.90;28.70
6538;DHT22;3302;52.508;13.454;2023-05-10T15:44:23;23.20;29.30
6538;DHT22;3302;52.508;13.454;2023-05-10T15:46:49;23.00;29.50
6538;DHT22;3302;52.508;13.454;2023-05-10T15:49:15;22.90;29.60
6538;DHT22;3302;52.508;13.454;2023-05-10T15:51:41;22.70;30.00
6538;DHT22;3302;52.508;13.454;2023-05-10T15:54:06;23.20;29.60
6538;DHT22;3302;52.508;13.454;2023-05-10T15:56:32;22.80;30.10
6538;DHT22;3302;52.508;13.454;2023-05-10T15:58:59;22.90;30.00
6538;DHT22;3302;52.508;13.454;2023-05-10T16:01:25;23.30;30.20
6538;DHT22;3302;52.508;13.454;2023-05-10T16:03:54;23.00;30.10
6538;DHT22;3302;52.508;13.454;2023-05-10T16:06:20;22.90;30.60
6538;DHT22;3302;52.508;13.454;2023-05-10T16:08:46;23.10;29.60
6538;DHT22;3302;52.508;13.454;2023-05-10T16:11:11;23.20;30.80
6538;DHT22;3302;52.508;13.454;2023-05-10T16:13:37;23.10;29.90